createdAt,value
2022-10-04T00:00:46.924Z,7.71
2022-10-04T00:01:46.937Z,7.58
2022-10-04T00:02:46.967Z,7.59
2022-10-04T00:03:46.921Z,7.62
2022-10-04T00:04:46.876Z,7.62
2022-10-04T00:05:46.902Z,7.60
2022-10-04T00:06:46.890Z,7.66
2022-10-04T00:07:46.898Z,7.66
2022-10-04T00:08:46.845Z,7.63
2022-10-04T00:09:46.886Z,7.71
2022-10-04T00:10:46.852Z,7.72
2022-10-04T00:11:46.866Z,7.74
2022-10-04T00:12:46.841Z,7.74
2022-10-04T00:13:46.822Z,7.62
2022-10-04T00:14:46.828Z,7.67
2022-10-04T00:15:46.840Z,7.66
2022-10-04T00:16:46.822Z,7.77
2022-10-04T00:17:46.938Z,7.63
2022-10-04T00:18:46.800Z,7.72
2022-10-04T00:19:46.791Z,7.75
2022-10-04T00:20:46.792Z,7.79
2022-10-04T00:21:46.778Z,7.82
2022-10-04T00:22:46.774Z,7.79
2022-10-04T00:23:46.761Z,7.77
2022-10-04T00:24:46.758Z,7.79
2022-10-04T00:25:46.753Z,7.72
2022-10-04T00:26:46.739Z,7.74
2022-10-04T00:27:46.742Z,7.74
2022-10-04T00:28:46.730Z,7.75
2022-10-04T00:29:46.711Z,7.82
2022-10-04T00:30:46.726Z,7.79
2022-10-04T00:31:46.739Z,7.69
2022-10-04T00:32:46.698Z,7.79
2022-10-04T00:33:46.697Z,7.75
2022-10-04T00:34:46.685Z,7.77
2022-10-04T00:35:46.673Z,7.75
2022-10-04T00:36:46.682Z,7.77
2022-10-04T00:37:46.673Z,7.60
2022-10-04T00:38:46.664Z,7.63
2022-10-04T00:39:46.658Z,7.44
2022-10-04T00:40:46.654Z,7.37
2022-10-04T00:41:46.662Z,7.22
2022-10-04T00:42:46.754Z,7.17
2022-10-04T00:43:46.648Z,7.13
2022-10-04T00:44:46.627Z,7.07
2022-10-04T00:45:46.675Z,7.04
2022-10-04T00:46:46.613Z,7.02
2022-10-04T00:47:46.617Z,7.12
2022-10-04T00:48:46.597Z,7.02
2022-10-04T00:49:46.581Z,7.02
2022-10-04T00:50:46.582Z,7.07
2022-10-04T00:51:46.573Z,7.07
2022-10-04T00:52:46.558Z,7.09
2022-10-04T00:53:46.580Z,7.16
2022-10-04T00:54:46.558Z,7.09
2022-10-04T00:55:46.558Z,7.12
2022-10-04T00:56:46.551Z,7.05
2022-10-04T00:57:46.537Z,7.04
2022-10-04T00:58:46.560Z,6.91
2022-10-04T00:59:46.524Z,6.95
2022-10-04T01:00:46.569Z,7.07
2022-10-04T01:01:46.570Z,6.95
2022-10-04T01:02:46.510Z,7.04
2022-10-04T01:03:46.513Z,7.16
2022-10-04T01:04:46.509Z,7.22
2022-10-04T01:05:46.493Z,7.13
2022-10-04T01:06:46.493Z,7.19
2022-10-04T01:07:46.479Z,7.20
2022-10-04T01:08:46.469Z,7.17
2022-10-04T01:09:46.497Z,7.19
2022-10-04T01:10:46.469Z,7.22
2022-10-04T01:11:46.485Z,7.27
2022-10-04T01:12:46.442Z,7.29
2022-10-04T01:13:46.441Z,7.29
2022-10-04T01:14:46.445Z,7.27
2022-10-04T01:15:46.507Z,7.24
2022-10-04T01:16:46.437Z,7.40
2022-10-04T01:17:46.417Z,7.44
2022-10-04T01:18:46.409Z,7.41
2022-10-04T01:19:46.408Z,7.42
2022-10-04T01:20:46.412Z,7.44
2022-10-04T01:21:46.380Z,7.52
2022-10-04T01:22:46.394Z,7.53
2022-10-04T01:23:46.380Z,7.47
2022-10-04T01:24:46.368Z,7.34
2022-10-04T01:25:46.393Z,7.20
2022-10-04T01:26:46.375Z,7.07
2022-10-04T01:27:46.349Z,7.01
2022-10-04T01:28:46.341Z,6.97
2022-10-04T01:29:46.341Z,6.94
2022-10-04T01:30:46.327Z,7.04
2022-10-04T01:31:46.585Z,7.01
2022-10-04T01:32:46.320Z,7.05
2022-10-04T01:33:46.306Z,7.05
2022-10-04T01:34:46.305Z,7.17
2022-10-04T01:35:46.304Z,7.20
2022-10-04T01:36:46.300Z,7.20
2022-10-04T01:37:46.287Z,7.20
2022-10-04T01:38:46.286Z,7.27
2022-10-04T01:39:46.261Z,7.27
2022-10-04T01:40:46.248Z,7.27
2022-10-04T01:41:46.254Z,7.35
2022-10-04T01:42:46.260Z,7.35
2022-10-04T01:43:46.237Z,7.35
2022-10-04T01:44:46.233Z,7.41
2022-10-04T01:45:46.226Z,7.34
2022-10-04T01:46:46.263Z,7.40
2022-10-04T01:47:46.237Z,7.44
2022-10-04T01:48:46.216Z,7.52
2022-10-04T01:49:46.200Z,7.52
2022-10-04T01:50:46.193Z,7.52
2022-10-04T01:51:46.208Z,7.49
2022-10-04T01:52:46.177Z,7.55
2022-10-04T01:53:46.170Z,7.41
2022-10-04T01:54:46.164Z,7.53
2022-10-04T01:55:46.157Z,7.49
2022-10-04T01:56:46.162Z,7.55
2022-10-04T01:57:46.145Z,7.56
2022-10-04T01:58:46.133Z,7.52
2022-10-04T01:59:46.120Z,7.40
2022-10-04T02:00:46.171Z,7.27
2022-10-04T02:01:46.434Z,7.16
2022-10-04T02:02:46.109Z,7.08
2022-10-04T02:03:46.143Z,6.94
2022-10-04T02:04:46.126Z,6.95
2022-10-04T02:05:46.080Z,6.84
2022-10-04T02:06:46.093Z,6.90
2022-10-04T02:07:46.069Z,6.79
2022-10-04T02:08:46.061Z,6.97
2022-10-04T02:09:46.062Z,6.97
2022-10-04T02:10:46.073Z,6.94
2022-10-04T02:11:46.126Z,6.91
2022-10-04T02:12:46.035Z,6.89
2022-10-04T02:13:46.025Z,6.91
2022-10-04T02:14:46.025Z,6.87
2022-10-04T02:15:46.063Z,6.98
2022-10-04T02:16:46.012Z,6.97
2022-10-04T02:17:46.018Z,7.05
2022-10-04T02:18:46.008Z,7.05
2022-10-04T02:19:46.000Z,7.07
2022-10-04T02:20:45.981Z,7.05
2022-10-04T02:21:45.983Z,6.94
2022-10-04T02:22:46.144Z,6.98
2022-10-04T02:23:45.965Z,7.02
2022-10-04T02:24:45.957Z,7.09
2022-10-04T02:25:45.956Z,7.13
2022-10-04T02:26:45.941Z,7.15
2022-10-04T02:27:45.940Z,7.13
2022-10-04T02:28:46.064Z,7.22
2022-10-04T02:29:45.921Z,7.24
2022-10-04T02:30:45.928Z,7.32
2022-10-04T02:31:46.207Z,7.32
2022-10-04T02:32:45.913Z,7.35
2022-10-04T02:33:45.923Z,7.38
2022-10-04T02:34:45.904Z,7.37
2022-10-04T02:35:45.876Z,7.45
2022-10-04T02:36:45.876Z,7.40
2022-10-04T02:37:45.892Z,7.40
2022-10-04T02:38:45.861Z,7.27
2022-10-04T02:39:45.853Z,7.23
2022-10-04T02:40:45.858Z,7.22
2022-10-04T02:41:45.837Z,7.09
2022-10-04T02:42:45.850Z,7.12
2022-10-04T02:43:45.845Z,7.12
2022-10-04T02:44:45.838Z,7.15
2022-10-04T02:45:45.820Z,7.16
2022-10-04T02:46:45.875Z,7.09
2022-10-04T02:47:45.804Z,7.09
2022-10-04T02:48:45.820Z,7.09
2022-10-04T02:49:45.795Z,7.08
2022-10-04T02:50:46.789Z,7.09
2022-10-04T02:51:45.789Z,7.13
2022-10-04T02:52:45.767Z,7.16
2022-10-04T02:53:45.761Z,7.22
2022-10-04T02:54:45.760Z,7.20
2022-10-04T02:55:45.748Z,7.26
2022-10-04T02:56:45.745Z,7.27
2022-10-04T02:57:45.733Z,7.31
2022-10-04T02:58:45.732Z,7.26
2022-10-04T02:59:45.749Z,7.22
2022-10-04T03:00:45.766Z,7.26
2022-10-04T03:01:46.026Z,7.23
2022-10-04T03:02:45.769Z,7.19
2022-10-04T03:03:45.693Z,7.22
2022-10-04T03:04:45.702Z,7.20
2022-10-04T03:05:45.704Z,7.24
2022-10-04T03:06:45.685Z,7.22
2022-10-04T03:07:45.668Z,7.19
2022-10-04T03:08:45.666Z,7.29
2022-10-04T03:09:45.666Z,7.26
2022-10-04T03:10:45.657Z,7.23
2022-10-04T03:11:45.644Z,7.20
2022-10-04T03:12:45.645Z,7.22
2022-10-04T03:13:45.629Z,7.23
2022-10-04T03:14:45.648Z,7.22
2022-10-04T03:15:45.660Z,7.29
2022-10-04T03:16:45.604Z,7.22
2022-10-04T03:17:45.605Z,7.23
2022-10-04T03:18:45.600Z,7.23
2022-10-04T03:19:45.589Z,7.16
2022-10-04T03:20:45.596Z,7.07
2022-10-04T03:21:45.660Z,7.23
2022-10-04T03:22:47.018Z,7.19
2022-10-04T03:23:46.564Z,7.29
2022-10-04T03:24:45.560Z,7.37
2022-10-04T03:25:45.548Z,7.34
2022-10-04T03:26:45.543Z,7.34
2022-10-04T03:27:45.564Z,7.49
2022-10-04T03:28:45.534Z,7.34
2022-10-04T03:29:45.520Z,7.59
2022-10-04T03:30:45.516Z,7.56
2022-10-04T03:31:45.873Z,7.53
2022-10-04T03:32:45.500Z,7.52
2022-10-04T03:33:45.504Z,7.44
2022-10-04T03:34:45.481Z,7.35
2022-10-04T03:35:46.476Z,7.37
2022-10-04T03:36:45.476Z,7.23
2022-10-04T03:37:45.468Z,7.31
2022-10-04T03:38:45.476Z,7.34
2022-10-04T03:39:45.455Z,7.32
2022-10-04T03:40:45.446Z,7.40
2022-10-04T03:41:45.448Z,7.38
2022-10-04T03:42:45.428Z,7.52
2022-10-04T03:43:45.428Z,7.58
2022-10-04T03:44:45.443Z,7.55
2022-10-04T03:45:45.451Z,7.50
2022-10-04T03:46:45.411Z,7.41
2022-10-04T03:47:45.412Z,7.40
2022-10-04T03:48:45.401Z,7.41
2022-10-04T03:49:50.505Z,7.35
2022-10-04T03:50:47.397Z,7.27
2022-10-04T03:51:45.380Z,7.35
2022-10-04T03:52:45.364Z,7.27
2022-10-04T03:53:45.368Z,7.34
2022-10-04T03:54:45.367Z,7.26
2022-10-04T03:55:45.351Z,7.40
2022-10-04T03:56:45.359Z,7.37
2022-10-04T03:57:45.340Z,7.35
2022-10-04T03:58:45.328Z,7.29
2022-10-04T03:59:45.328Z,7.31
2022-10-04T04:00:45.386Z,7.26
2022-10-04T04:01:45.609Z,7.23
2022-10-04T04:02:46.346Z,7.19
2022-10-04T04:03:46.289Z,7.20
2022-10-04T04:04:45.293Z,7.35
2022-10-04T04:05:45.288Z,7.23
2022-10-04T04:06:45.276Z,7.27
2022-10-04T04:07:45.288Z,7.27
2022-10-04T04:08:45.284Z,7.16
2022-10-04T04:09:45.261Z,7.16
2022-10-04T04:10:45.245Z,7.26
2022-10-04T04:11:45.237Z,7.12
2022-10-04T04:12:45.230Z,7.19
2022-10-04T04:13:45.249Z,7.09
2022-10-04T04:14:45.225Z,7.15
2022-10-04T04:15:45.222Z,7.22
2022-10-04T04:16:45.235Z,7.17
2022-10-04T04:17:45.211Z,7.17
2022-10-04T04:18:45.222Z,7.23
2022-10-04T04:19:45.194Z,7.23
2022-10-04T04:20:45.199Z,7.22
2022-10-04T04:21:45.185Z,7.27
2022-10-04T04:22:45.162Z,7.23
2022-10-04T04:23:45.156Z,7.19
2022-10-04T04:24:45.157Z,7.16
2022-10-04T04:25:45.268Z,7.17
2022-10-04T04:26:45.151Z,7.17
2022-10-04T04:27:45.130Z,7.22
2022-10-04T04:28:45.125Z,7.20
2022-10-04T04:29:45.128Z,7.24
2022-10-04T04:30:45.141Z,7.19
2022-10-04T04:31:45.442Z,7.15
2022-10-04T04:32:45.108Z,7.20
2022-10-04T04:33:45.105Z,7.20
2022-10-04T04:34:45.089Z,7.20
2022-10-04T04:35:45.105Z,7.26
2022-10-04T04:36:45.085Z,7.23
2022-10-04T04:37:45.069Z,7.23
2022-10-04T04:38:45.077Z,7.29
2022-10-04T04:39:45.054Z,7.32
2022-10-04T04:40:45.051Z,7.27
2022-10-04T04:41:50.220Z,7.24
2022-10-04T04:42:47.042Z,7.20
2022-10-04T04:43:45.052Z,7.19
2022-10-04T04:44:45.017Z,7.26
2022-10-04T04:45:45.079Z,7.29
2022-10-04T04:46:45.079Z,7.23
2022-10-04T04:47:44.994Z,7.17
2022-10-04T04:48:45.006Z,7.24
2022-10-04T04:49:44.990Z,7.27
2022-10-04T04:50:45.020Z,7.23
2022-10-04T04:51:44.990Z,7.23
2022-10-04T04:52:44.994Z,7.34
2022-10-04T04:53:44.969Z,7.31
2022-10-04T04:54:44.958Z,7.26
2022-10-04T04:56:02.748Z,7.29
2022-10-04T04:56:46.946Z,7.29
2022-10-04T04:57:44.934Z,7.27
2022-10-04T04:58:44.962Z,7.45
2022-10-04T04:59:44.917Z,7.45
2022-10-04T05:00:44.952Z,7.66
2022-10-04T05:01:45.418Z,7.56
2022-10-04T05:02:44.905Z,7.53
2022-10-04T05:03:44.897Z,7.63
2022-10-04T05:04:44.894Z,7.55
2022-10-04T05:05:44.877Z,7.53
2022-10-04T05:06:44.898Z,7.50
2022-10-04T05:07:44.865Z,7.53
2022-10-04T05:08:44.853Z,7.50
2022-10-04T05:09:44.854Z,7.59
2022-10-04T05:10:44.865Z,7.53
2022-10-04T05:11:44.931Z,7.62
2022-10-04T05:12:44.833Z,7.53
2022-10-04T05:13:44.821Z,7.58
2022-10-04T05:14:44.821Z,7.56
2022-10-04T05:15:44.821Z,7.53
2022-10-04T05:16:44.873Z,7.75
2022-10-04T05:17:44.785Z,7.72
2022-10-04T05:18:44.788Z,7.63
2022-10-04T05:19:44.781Z,7.77
2022-10-04T05:20:44.774Z,7.78
2022-10-04T05:21:45.085Z,7.78
2022-10-04T05:22:44.761Z,7.78
2022-10-04T05:23:44.766Z,7.85
2022-10-04T05:24:44.745Z,7.72
2022-10-04T05:25:44.737Z,7.72
2022-10-04T05:26:44.746Z,7.59
2022-10-04T05:27:44.768Z,7.59
2022-10-04T05:28:44.714Z,7.58
2022-10-04T05:29:44.705Z,7.58
2022-10-04T05:30:44.701Z,7.58
2022-10-04T05:31:45.168Z,7.72
2022-10-04T05:32:44.685Z,7.72
2022-10-04T05:33:44.673Z,7.79
2022-10-04T05:34:44.674Z,7.71
2022-10-04T05:35:44.673Z,7.60
2022-10-04T05:36:44.664Z,7.58
2022-10-04T05:37:44.657Z,7.58
2022-10-04T05:38:44.654Z,7.60
2022-10-04T05:39:44.642Z,7.59
2022-10-04T05:40:44.652Z,7.60
2022-10-04T05:41:44.925Z,7.67
2022-10-04T05:42:44.622Z,7.58
2022-10-04T05:43:44.612Z,7.52
2022-10-04T05:44:44.610Z,7.60
2022-10-04T05:45:44.795Z,7.59
2022-10-04T05:46:44.642Z,7.56
2022-10-04T05:47:44.584Z,7.58
2022-10-04T05:48:44.565Z,7.58
2022-10-04T05:49:44.593Z,7.55
2022-10-04T05:50:44.561Z,7.59
2022-10-04T05:51:44.985Z,7.59
2022-10-04T05:52:44.564Z,7.67
2022-10-04T05:53:44.544Z,7.63
2022-10-04T05:54:44.536Z,7.67
2022-10-04T05:55:44.529Z,7.63
2022-10-04T05:56:44.517Z,7.69
2022-10-04T05:57:44.587Z,7.79
2022-10-04T05:58:44.506Z,7.78
2022-10-04T05:59:44.505Z,7.66
2022-10-04T06:00:44.493Z,7.75
2022-10-04T06:01:44.834Z,7.69
2022-10-04T06:02:44.539Z,7.77
2022-10-04T06:03:44.476Z,7.74
2022-10-04T06:04:44.479Z,7.84
2022-10-04T06:05:44.460Z,7.72
2022-10-04T06:06:44.448Z,7.74
2022-10-04T06:07:44.440Z,7.78
2022-10-04T06:08:44.441Z,7.66
2022-10-04T06:09:44.434Z,7.72
2022-10-04T06:10:44.421Z,7.79
2022-10-04T06:11:44.717Z,7.66
2022-10-04T06:12:44.755Z,7.67
2022-10-04T06:13:45.415Z,7.78
2022-10-04T06:14:44.392Z,7.79
2022-10-04T06:15:44.385Z,7.60
2022-10-04T06:16:44.426Z,7.62
2022-10-04T06:17:44.376Z,7.69
2022-10-04T06:18:44.383Z,7.72
2022-10-04T06:19:44.365Z,7.67
2022-10-04T06:20:44.364Z,7.74
2022-10-04T06:21:44.806Z,7.66
2022-10-04T06:22:44.340Z,7.74
2022-10-04T06:23:44.380Z,7.89
2022-10-04T06:24:44.338Z,7.82
2022-10-04T06:25:44.350Z,7.87
2022-10-04T06:26:44.316Z,7.81
2022-10-04T06:27:44.304Z,7.90
2022-10-04T06:28:44.308Z,7.75
2022-10-04T06:29:44.287Z,7.82
2022-10-04T06:30:44.342Z,7.84
2022-10-04T06:31:44.584Z,7.82
2022-10-04T06:32:44.273Z,7.81
2022-10-04T06:33:44.296Z,7.82
2022-10-04T06:34:44.277Z,7.84
2022-10-04T06:35:44.254Z,7.90
2022-10-04T06:36:44.241Z,7.89
2022-10-04T06:37:44.258Z,8.02
2022-10-04T06:38:44.236Z,8.15
2022-10-04T06:39:44.239Z,8.15
2022-10-04T06:40:44.220Z,8.28
2022-10-04T06:41:44.470Z,8.33
2022-10-04T06:42:44.209Z,8.57
2022-10-04T06:43:44.205Z,8.50
2022-10-04T06:44:46.389Z,8.68
2022-10-04T06:45:45.205Z,8.79
2022-10-04T06:46:44.177Z,8.69
2022-10-04T06:47:44.166Z,8.65
2022-10-04T06:48:44.165Z,8.73
2022-10-04T06:49:44.165Z,8.66
2022-10-04T06:50:44.157Z,8.53
2022-10-04T06:51:44.598Z,8.55
2022-10-04T06:52:44.141Z,8.55
2022-10-04T06:53:44.120Z,8.54
2022-10-04T06:54:44.126Z,8.55
2022-10-04T06:55:44.120Z,8.53
2022-10-04T06:56:44.104Z,8.50
2022-10-04T06:57:44.097Z,8.66
2022-10-04T06:58:44.092Z,8.55
2022-10-04T06:59:44.086Z,8.71
2022-10-04T07:00:44.090Z,8.69
2022-10-04T07:01:44.449Z,8.73
2022-10-04T07:02:44.135Z,8.84
2022-10-04T07:03:46.973Z,8.96
2022-10-04T07:05:09.634Z,8.96
2022-10-04T07:05:46.066Z,8.88
2022-10-04T07:06:44.033Z,8.90
2022-10-04T07:07:44.029Z,8.97
2022-10-04T07:08:44.017Z,9.13
2022-10-04T07:09:45.021Z,9.21
2022-10-04T07:10:44.030Z,9.31
2022-10-04T07:11:44.450Z,9.45
2022-10-04T07:12:44.406Z,9.57
2022-10-04T07:13:43.993Z,9.82
2022-10-04T07:14:44.375Z,10.00
2022-10-04T07:16:15.987Z,10.14
2022-10-04T07:16:43.977Z,10.21
2022-10-04T07:17:43.974Z,10.43
2022-10-04T07:18:43.975Z,10.59
2022-10-04T07:19:43.957Z,10.55
2022-10-04T07:20:43.961Z,10.63
2022-10-04T07:21:46.676Z,10.71
2022-10-04T07:22:44.937Z,10.84
2022-10-04T07:23:43.934Z,10.96
2022-10-04T07:24:43.933Z,11.01
2022-10-04T07:25:43.917Z,10.98
2022-10-04T07:26:43.928Z,11.20
2022-10-04T07:27:43.913Z,11.10
2022-10-04T07:28:43.890Z,11.11
2022-10-04T07:29:43.898Z,11.27
2022-10-04T07:30:43.957Z,11.41
2022-10-04T07:31:44.063Z,11.44
2022-10-04T07:32:43.877Z,11.52
2022-10-04T07:33:43.877Z,11.32
2022-10-04T07:34:43.852Z,11.19
2022-10-04T07:35:43.867Z,11.20
2022-10-04T07:36:43.853Z,11.10
2022-10-04T07:37:43.855Z,11.21
2022-10-04T07:38:43.829Z,11.35
2022-10-04T07:39:43.825Z,11.68
2022-10-04T07:40:43.824Z,12.01
2022-10-04T07:41:44.044Z,12.09
2022-10-04T07:42:43.833Z,12.46
2022-10-04T07:43:43.805Z,12.64
2022-10-04T07:44:43.796Z,12.64
2022-10-04T07:45:43.855Z,12.52
2022-10-04T07:46:43.780Z,12.34
2022-10-04T07:47:43.794Z,12.34
2022-10-04T07:48:43.782Z,12.21
2022-10-04T07:49:43.765Z,12.16
2022-10-04T07:50:43.753Z,12.27
2022-10-04T07:51:44.218Z,12.45
2022-10-04T07:52:43.761Z,13.09
2022-10-04T07:53:43.724Z,13.32
2022-10-04T07:54:43.740Z,13.29
2022-10-04T07:55:43.731Z,13.24
2022-10-04T07:56:43.710Z,13.27
2022-10-04T07:57:43.730Z,13.25
2022-10-04T07:58:45.881Z,13.32
2022-10-04T07:59:44.690Z,13.06
2022-10-04T08:00:43.726Z,13.09
2022-10-04T08:01:44.014Z,12.84
2022-10-04T08:02:43.738Z,12.96
2022-10-04T08:03:43.673Z,13.00
2022-10-04T08:04:43.657Z,13.14
2022-10-04T08:05:43.641Z,13.12
2022-10-04T08:06:43.965Z,13.18
2022-10-04T08:07:43.658Z,13.12
2022-10-04T08:08:43.641Z,13.76
2022-10-04T08:09:43.658Z,14.62
2022-10-04T08:10:43.616Z,15.46
2022-10-04T08:11:43.850Z,15.84
2022-10-04T08:12:43.606Z,16.06
2022-10-04T08:13:43.615Z,16.15
2022-10-04T08:14:43.570Z,15.70
2022-10-04T08:15:43.612Z,15.59
2022-10-04T08:16:43.815Z,15.51
2022-10-04T08:17:43.562Z,15.12
2022-10-04T08:18:43.546Z,15.08
2022-10-04T08:19:43.561Z,15.66
2022-10-04T08:20:43.535Z,16.26
2022-10-04T08:21:43.534Z,16.18
2022-10-04T08:22:43.521Z,16.03
2022-10-04T08:23:43.509Z,15.92
2022-10-04T08:24:43.526Z,15.64
2022-10-04T08:25:43.506Z,15.17
2022-10-04T08:26:43.989Z,14.65
2022-10-04T08:27:43.523Z,14.31
2022-10-04T08:28:43.494Z,14.62
2022-10-04T08:29:43.494Z,14.83
2022-10-04T08:30:43.516Z,14.94
2022-10-04T08:31:43.462Z,14.78
2022-10-04T08:32:43.462Z,14.94
2022-10-04T08:33:43.446Z,15.51
2022-10-04T08:34:43.478Z,16.11
2022-10-04T08:35:43.454Z,16.88
2022-10-04T08:36:43.683Z,17.62
2022-10-04T08:37:43.414Z,17.54
2022-10-04T08:38:43.414Z,18.07
2022-10-04T08:39:43.430Z,18.33
2022-10-04T08:40:43.399Z,19.13
2022-10-04T08:41:43.386Z,19.79
2022-10-04T08:42:43.386Z,20.28
2022-10-04T08:43:43.383Z,20.69
2022-10-04T08:44:43.402Z,21.20
2022-10-04T08:45:43.362Z,21.16
2022-10-04T08:46:43.712Z,21.23
2022-10-04T08:47:43.346Z,21.24
2022-10-04T08:48:43.343Z,20.38
2022-10-04T08:49:43.354Z,19.70
2022-10-04T08:50:43.331Z,19.35
2022-10-04T08:51:43.326Z,18.70
2022-10-04T08:52:43.318Z,18.49
2022-10-04T08:53:43.298Z,18.58
2022-10-04T08:54:43.297Z,18.15
2022-10-04T08:55:43.310Z,17.97
2022-10-04T08:56:43.489Z,17.85
2022-10-04T08:57:43.337Z,17.62
2022-10-04T08:58:43.295Z,17.81
2022-10-04T08:59:43.267Z,18.24
2022-10-04T09:00:43.271Z,18.72
2022-10-04T09:01:43.292Z,18.54
2022-10-04T09:02:43.312Z,18.76
2022-10-04T09:03:43.236Z,18.58
2022-10-04T09:04:43.234Z,18.46
2022-10-04T09:05:43.242Z,18.76
2022-10-04T09:06:43.395Z,18.99
2022-10-04T09:07:43.213Z,18.94
2022-10-04T09:08:43.214Z,18.84
2022-10-04T09:09:43.190Z,18.98
2022-10-04T09:10:43.274Z,19.15
2022-10-04T09:11:43.211Z,19.08
2022-10-04T09:12:43.214Z,19.73
2022-10-04T09:13:43.241Z,19.98
2022-10-04T09:14:43.165Z,20.98
2022-10-04T09:15:43.270Z,21.17
2022-10-04T09:16:43.410Z,20.96
2022-10-04T09:17:43.143Z,20.05
2022-10-04T09:18:43.138Z,19.39
2022-10-04T09:19:43.121Z,18.98
2022-10-04T09:20:43.134Z,19.13
2022-10-04T09:21:43.129Z,19.66
2022-10-04T09:22:43.105Z,19.95
2022-10-04T09:23:43.102Z,20.12
2022-10-04T09:24:43.126Z,20.31
2022-10-04T09:25:43.090Z,20.71
2022-10-04T09:26:43.326Z,21.16
2022-10-04T09:27:56.991Z,21.56
2022-10-04T09:28:45.073Z,21.94
2022-10-04T09:29:43.061Z,21.99
2022-10-04T09:30:43.103Z,21.91
2022-10-04T09:31:43.067Z,22.17
2022-10-04T09:32:43.045Z,22.10
2022-10-04T09:33:43.055Z,21.78
2022-10-04T09:34:43.025Z,21.39
2022-10-04T09:35:43.021Z,21.53
2022-10-04T09:36:43.220Z,21.90
2022-10-04T09:37:43.014Z,21.50
2022-10-04T09:38:43.018Z,21.32
2022-10-04T09:39:43.002Z,21.64
2022-10-04T09:40:47.101Z,22.27
2022-10-04T09:41:43.997Z,22.86
2022-10-04T09:42:42.990Z,23.75
2022-10-04T09:43:42.986Z,23.83
2022-10-04T09:44:42.962Z,24.12
2022-10-04T09:45:42.991Z,24.52
2022-10-04T09:46:43.278Z,24.95
2022-10-04T09:47:42.946Z,25.13
2022-10-04T09:48:42.987Z,24.75
2022-10-04T09:49:42.937Z,24.04
2022-10-04T09:50:42.932Z,24.12
2022-10-04T09:51:42.925Z,24.37
2022-10-04T09:52:42.918Z,24.61
2022-10-04T09:53:42.937Z,24.76
2022-10-04T09:54:44.514Z,25.28
2022-10-04T09:55:43.898Z,25.01
2022-10-04T09:56:43.230Z,24.68
2022-10-04T09:57:42.894Z,24.27
2022-10-04T09:58:42.885Z,24.32
2022-10-04T09:59:42.890Z,24.80
2022-10-04T10:00:42.869Z,24.60
2022-10-04T10:01:42.894Z,24.88
2022-10-04T10:02:42.925Z,24.71
2022-10-04T10:03:42.849Z,24.47
2022-10-04T10:04:42.854Z,24.45
2022-10-04T10:05:42.841Z,24.59
2022-10-04T10:06:43.114Z,24.71
2022-10-04T10:07:42.830Z,24.42
2022-10-04T10:08:42.850Z,24.19
2022-10-04T10:09:42.837Z,23.98
2022-10-04T10:10:42.805Z,23.86
2022-10-04T10:11:43.036Z,23.50
2022-10-04T10:12:42.794Z,23.47
2022-10-04T10:13:42.814Z,23.32
2022-10-04T10:14:42.849Z,23.27
2022-10-04T10:15:42.795Z,23.79
2022-10-04T10:16:43.131Z,24.20
2022-10-04T10:17:42.781Z,24.17
2022-10-04T10:18:42.797Z,24.60
2022-10-04T10:19:42.768Z,24.98
2022-10-04T10:20:42.754Z,25.31
2022-10-04T10:21:43.044Z,25.05
2022-10-04T10:22:42.752Z,24.91
2022-10-04T10:23:42.729Z,25.05
2022-10-04T10:24:43.729Z,24.37
2022-10-04T10:25:42.740Z,24.56
2022-10-04T10:26:42.997Z,24.82
2022-10-04T10:27:42.725Z,24.88
2022-10-04T10:28:42.725Z,24.79
2022-10-04T10:29:42.706Z,25.10
2022-10-04T10:30:42.705Z,25.44
2022-10-04T10:31:45.819Z,25.37
2022-10-04T10:32:44.689Z,25.24
2022-10-04T10:33:42.692Z,24.24
2022-10-04T10:34:42.677Z,24.01
2022-10-04T10:35:42.664Z,22.62
2022-10-04T10:36:43.025Z,22.19
2022-10-04T10:37:42.653Z,22.34
2022-10-04T10:38:42.664Z,22.77
2022-10-04T10:39:43.089Z,23.47
2022-10-04T10:40:42.637Z,24.27
2022-10-04T10:41:42.626Z,24.44
2022-10-04T10:42:42.618Z,24.38
2022-10-04T10:43:42.634Z,24.04
2022-10-04T10:44:42.611Z,23.90
2022-10-04T10:45:42.607Z,24.20
2022-10-04T10:46:43.081Z,24.47
2022-10-04T10:47:42.593Z,24.61
2022-10-04T10:48:42.603Z,24.68
2022-10-04T10:49:42.575Z,24.26
2022-10-04T10:50:43.689Z,23.87
2022-10-04T10:51:42.602Z,23.92
2022-10-04T10:52:42.594Z,23.62
2022-10-04T10:53:42.557Z,23.55
2022-10-04T10:54:42.572Z,23.64
2022-10-04T10:55:42.543Z,23.20
2022-10-04T10:56:42.760Z,23.45
2022-10-04T10:57:42.538Z,23.40
2022-10-04T10:58:42.554Z,22.60
2022-10-04T10:59:42.532Z,22.59
2022-10-04T11:00:42.520Z,22.96
2022-10-04T11:01:42.622Z,23.12
2022-10-04T11:02:50.029Z,23.38
2022-10-04T11:03:44.609Z,23.29
2022-10-04T11:04:42.511Z,23.01
2022-10-04T11:05:42.514Z,22.96
2022-10-04T11:06:42.961Z,22.87
2022-10-04T11:07:42.471Z,22.54
2022-10-04T11:08:42.485Z,22.27
2022-10-04T11:09:42.462Z,21.64
2022-10-04T11:10:42.454Z,21.23
2022-10-04T11:11:42.457Z,21.60
2022-10-04T11:12:42.450Z,21.76
2022-10-04T11:13:42.454Z,21.56
2022-10-04T11:14:42.441Z,21.17
2022-10-04T11:15:42.478Z,21.04
2022-10-04T11:16:42.639Z,21.32
2022-10-04T11:17:42.419Z,21.35
2022-10-04T11:18:42.406Z,21.48
2022-10-04T11:19:42.406Z,21.48
2022-10-04T11:20:42.403Z,21.74
2022-10-04T11:21:42.399Z,21.75
2022-10-04T11:22:42.377Z,21.67
2022-10-04T11:23:42.378Z,21.69
2022-10-04T11:24:42.375Z,22.04
2022-10-04T11:25:42.375Z,22.32
2022-10-04T11:26:42.666Z,22.46
2022-10-04T11:27:45.385Z,22.54
2022-10-04T11:28:42.476Z,22.50
2022-10-04T11:29:42.363Z,21.97
2022-10-04T11:30:42.339Z,21.97
2022-10-04T11:31:42.445Z,22.17
2022-10-04T11:32:42.320Z,22.02
2022-10-04T11:33:42.317Z,22.25
2022-10-04T11:34:42.301Z,22.34
2022-10-04T11:35:42.306Z,21.94
2022-10-04T11:36:42.515Z,22.07
2022-10-04T11:37:42.296Z,22.50
2022-10-04T11:38:42.286Z,22.86
2022-10-04T11:39:44.509Z,22.83
2022-10-04T11:40:43.281Z,22.94
2022-10-04T11:41:42.271Z,23.32
2022-10-04T11:42:42.261Z,23.11
2022-10-04T11:43:42.257Z,22.89
2022-10-04T11:44:42.254Z,22.71
2022-10-04T11:45:42.241Z,22.43
2022-10-04T11:46:42.741Z,22.44
2022-10-04T11:47:42.233Z,22.65
2022-10-04T11:48:42.221Z,22.14
2022-10-04T11:49:42.221Z,22.09
2022-10-04T11:50:42.214Z,22.02
2022-10-04T11:51:42.210Z,21.71
2022-10-04T11:52:42.201Z,21.72
2022-10-04T11:53:42.194Z,22.07
2022-10-04T11:54:42.191Z,22.37
2022-10-04T11:55:42.189Z,22.02
2022-10-04T11:56:42.439Z,22.01
2022-10-04T11:57:42.175Z,22.28
2022-10-04T11:58:42.157Z,22.31
2022-10-04T11:59:42.159Z,22.09
2022-10-04T12:00:42.169Z,21.99
2022-10-04T12:01:42.147Z,21.98
2022-10-04T12:02:42.133Z,21.94
2022-10-04T12:03:42.238Z,22.01
2022-10-04T12:04:42.157Z,22.29
2022-10-04T12:05:42.122Z,22.53
2022-10-04T12:06:42.369Z,22.35
2022-10-04T12:07:42.108Z,21.83
2022-10-04T12:08:42.097Z,21.30
2022-10-04T12:09:42.162Z,21.24
2022-10-04T12:10:42.089Z,21.35
2022-10-04T12:11:42.083Z,21.74
2022-10-04T12:12:42.077Z,22.09
2022-10-04T12:13:42.076Z,22.39
2022-10-04T12:14:42.078Z,22.60
2022-10-04T12:15:42.070Z,22.96
2022-10-04T12:16:42.137Z,22.35
2022-10-04T12:17:42.058Z,21.98
2022-10-04T12:18:42.029Z,21.95
2022-10-04T12:19:42.032Z,21.83
2022-10-04T12:20:42.022Z,22.07
2022-10-04T12:21:42.023Z,22.52
2022-10-04T12:22:42.027Z,22.22
2022-10-04T12:23:42.038Z,22.72
2022-10-04T12:24:41.990Z,22.83
2022-10-04T12:25:42.002Z,22.89
2022-10-04T12:26:42.390Z,23.12
2022-10-04T12:27:41.981Z,23.02
2022-10-04T12:28:41.984Z,22.96
2022-10-04T12:29:41.967Z,23.01
2022-10-04T12:30:41.955Z,23.26
2022-10-04T12:31:42.010Z,23.01
2022-10-04T12:32:41.951Z,22.47
2022-10-04T12:33:41.967Z,22.13
2022-10-04T12:34:41.922Z,22.38
2022-10-04T12:35:41.958Z,22.32
2022-10-04T12:36:41.936Z,22.28
2022-10-04T12:37:41.921Z,22.50
2022-10-04T12:38:41.938Z,22.43
2022-10-04T12:39:41.903Z,22.59
2022-10-04T12:40:41.899Z,22.92
2022-10-04T12:41:41.947Z,22.65
2022-10-04T12:42:41.891Z,22.69
2022-10-04T12:43:42.898Z,22.37
2022-10-04T12:44:41.879Z,22.34
2022-10-04T12:45:41.922Z,22.39
2022-10-04T12:46:41.858Z,22.23
2022-10-04T12:47:41.866Z,22.31
2022-10-04T12:48:41.851Z,22.17
2022-10-04T12:49:41.851Z,21.99
2022-10-04T12:50:41.835Z,21.92
2022-10-04T12:51:41.839Z,21.85
2022-10-04T12:52:41.834Z,21.72
2022-10-04T12:53:41.833Z,21.59
2022-10-04T12:54:41.880Z,21.92
2022-10-04T12:55:41.814Z,21.79
2022-10-04T12:56:41.935Z,21.79
2022-10-04T12:57:41.850Z,21.75
2022-10-04T12:58:41.801Z,21.82
2022-10-04T12:59:41.802Z,22.07
2022-10-04T13:00:41.803Z,22.43
2022-10-04T13:01:41.805Z,22.35
2022-10-04T13:02:41.771Z,22.27
2022-10-04T13:03:41.779Z,22.06
2022-10-04T13:04:41.775Z,21.91
2022-10-04T13:05:41.747Z,21.85
2022-10-04T13:06:43.678Z,21.95